• Join FlightAware (Why Join?)
  • Login
  • US Flag 
Trick or treat! (Boo!!) 
12:25PM EDT


 

Airport Tracker/Info


-or-


 

Live Flight TrackerFlight Track Log ✈ AWE1890 ✈ 22-Apr-2013 ✈ KPBI - KPHL

Flight Track Log - Related Links

Times and Time Zones

All times are in EDT time to prevent confusion due to time zone crossing. See the AWE1890 flight status page for this flight to view local times or setup timezone preferences in your user account.

Time Position Orientation Groundspeed Altitude Reporting Facility
EDT Latitude Longitude Course Direction KTS MPH feet Rate Location/Type
07:33PM 26.8661 -79.7642 51° Northeast  Level FlightAware Approximate
07:33PM 26.7306 -79.9572 53° Northeast 230 265 5,200  Level Miami Center
07:34PM 26.9441 -79.6562 55° Northeast  Level FlightAware Approximate
07:34PM 26.7839 -79.9028 42° Northeast 257 296 8,100  Level Miami Center
07:35PM 27.0132 -79.5403 61° Northeast  Level FlightAware Approximate
07:35PM 26.8417 -79.8297 48° Northeast 277 319 10,800  Level Miami Center
07:36PM 27.0850 -79.4308 53° Northeast  Level FlightAware Approximate
07:36PM 26.8956 -79.7519 52° Northeast 324 373 12,000  Level Miami Center
07:37PM 27.1591 -79.3197 53° Northeast  Level FlightAware Approximate
07:37PM 26.9622 -79.6533 53° Northeast 368 423 13,700  Level Miami Center
07:38PM 27.2337 -79.2078 53° Northeast  Level FlightAware Approximate
07:38PM 27.0353 -79.5386 54° Northeast 402 463 15,100  Level Miami Center
07:39PM 27.1064 -79.4306 54° Northeast 422 486 15,100 540 Level Miami Center
07:40PM 27.1664 -79.3361 54° Northeast 416 479 16,200 1,500 Climbing Miami Center
07:41PM 27.2350 -79.2300 54° Northeast 416 479 18,100 2,100 Climbing Miami Center
07:42PM 27.3100 -79.1100 55° Northeast 421 484 20,400 1,980 Climbing Miami Center
07:43PM 27.3847 -78.9969 53° Northeast 432 497 22,100 1,800 Climbing Miami Center
07:44PM 27.4553 -78.8836 55° Northeast 449 517 24,000 1,680 Climbing Miami Center
07:45PM 27.5236 -78.7792 54° Northeast 449 517 25,500 1,500 Climbing Miami Center
07:46PM 27.5981 -78.6633 54° Northeast 449 517 27,000 1,260 Climbing Miami Center
07:47PM 27.7017 -78.5758 37° Northeast 442 509 28,100 900 Climbing Miami Center
07:48PM 27.8314 -78.5567 North 442 509 28,800 840 Climbing Miami Center
07:49PM 27.9672 -78.5353 North 453 521 29,800 960 Climbing Miami Center
07:50PM 28.0989 -78.5158 North 476 548 30,800 1,560 Climbing Miami Center
07:51PM 28.2350 -78.4944 North 484 557 33,000 1,560 Climbing Miami Center
07:52PM 28.3667 -78.4750 North 484 557 34,000 900 Climbing Miami Center
07:53PM 28.5006 -78.4533 North 478 550 34,900 840 Climbing Miami Center
07:54PM 28.6322 -78.4339 North 478 550 35,700 960 Climbing Miami Center
07:55PM 28.7661 -78.4122 North 485 558 36,900 600 Climbing Miami Center
07:56PM 28.8978 -78.3925 North 478 550 37,000  Climbing Miami Center
07:57PM 29.0272 -78.3706 North 478 550 37,000  Level Miami Center
07:58PM 29.1611 -78.3511 North 478 550 37,000  Level Miami Center
07:59PM 29.2969 -78.3317 North 478 550 37,000  Level Miami Center
08:00PM 29.4325 -78.3142 North 483 556 37,000  Level Miami Center
08:01PM 29.5622 -78.2922 North 477 549 37,000  Level Miami Center
08:02PM 29.6936 -78.2725 North 477 549 37,000  Level Miami Center
08:02PM 29.7711 -78.2558 11° North 477 549 37,000  Level Jacksonville Center
08:03PM 29.9058 -78.2350 North 477 549 37,000  Level Jacksonville Center
08:04PM 30.0367 -78.2119 North 479 551 37,000  Level Jacksonville Center
08:05PM 30.1736 -78.1933 North 499 574 37,000  Level Jacksonville Center
08:06PM 30.3042 -78.1700 North 476 548 37,000  Level Jacksonville Center
08:07PM 30.4431 -78.1392 11° North 492 566 37,000  Level Jacksonville Center
08:08PM 30.5750 -78.0964 16° North 489 563 37,000  Level Jacksonville Center
08:09PM 30.7089 -78.0511 16° North 485 558 37,000  Level Jacksonville Center
08:10PM 30.8431 -78.0103 15° North 504 580 37,000  Level Jacksonville Center
08:11PM 30.9606 -77.9703 16° North 492 566 37,000  Level Jacksonville Center
08:12PM 31.0942 -77.9219 17° North 487 560 37,000  Level Jacksonville Center
08:13PM 31.2278 -77.8714 18° North 492 566 37,000  Level Jacksonville Center
08:14PM 31.3639 -77.8300 15° North 492 566 37,000  Level Jacksonville Center
08:15PM 31.4986 -77.8006 11° North 492 566 37,000  Level Jacksonville Center
08:16PM 31.6342 -77.7469 19° North 492 566 37,000  Level Jacksonville Center
08:17PM 31.7700 -77.7003 16° North 492 566 37,000  Level Jacksonville Center
08:18PM 31.9081 -77.6558 15° North 497 572 37,000  Level Jacksonville Center
08:19PM 32.0417 -77.6114 16° North 497 572 37,000  Level Jacksonville Center
08:20PM 32.1778 -77.5692 15° North 503 579 37,000 -60 Level Jacksonville Center
08:21PM 32.3156 -77.5219 16° North 503 579 36,900  Descending Jacksonville Center
08:22PM 32.4533 -77.4744 16° North 508 585 37,000  Climbing Jacksonville Center
08:23PM 32.5894 -77.4317 15° North 508 585 37,000  Level Jacksonville Center
08:24PM 32.7272 -77.3864 15° North 508 585 37,000  Level Jacksonville Center
08:26PM 32.9686 -77.3019 16° North 493 567 37,000  Level Washington Center
08:27PM 33.1111 -77.2550 15° North 510 587 37,000  Level Washington Center
08:28PM 33.2472 -77.2081 16° North 510 587 37,000  Level Washington Center
08:29PM 33.3856 -77.1611 16° North 510 587 37,000  Level Washington Center
08:30PM 33.5258 -77.1114 16° North 515 593 37,000  Level Washington Center
08:31PM 33.6683 -77.0667 15° North 515 593 37,000 -420 Level Washington Center
08:32PM 33.8067 -77.0167 17° North 515 593 36,200 -1,260 Descending Washington Center
08:33PM 33.9636 -76.9617 16° North 520 598 34,500 -1,620 Descending Washington Center
08:34PM 34.1039 -76.9139 16° North 520 598 33,000 -1,560 Descending Washington Center
08:35PM 34.2486 -76.8633 16° North 525 604 31,500 -1,080 Descending Washington Center
08:36PM 34.3867 -76.8153 16° North 520 598 30,900 -300 Descending Washington Center
08:37PM 34.5269 -76.7644 17° North 520 598 31,000  Climbing Washington Center
08:38PM 34.6672 -76.7158 16° North 520 598 31,000  Level Washington Center
08:39PM 34.8075 -76.6672 16° North 515 593 31,000  Level Washington Center
08:40PM 34.9478 -76.6183 16° North 515 593 31,000  Level Washington Center
08:41PM 35.0881 -76.5694 16° North 515 593 31,000  Level Washington Center
08:42PM 35.2114 -76.5225 17° North 515 593 31,000  Level Washington Center
08:43PM 35.3642 -76.4631 18° North 515 593 31,000  Level Washington Center
08:44PM 35.5042 -76.4161 15° North 515 593 31,000  Level Washington Center
08:45PM 35.6422 -76.3664 16° North 515 593 31,000  Level Washington Center
08:46PM 35.7825 -76.3192 15° North 515 593 31,000  Level Washington Center
08:47PM 35.9225 -76.2667 17° North 515 593 31,000 -60 Level Washington Center
08:48PM 36.0606 -76.2114 18° North 515 593 30,900 -780 Descending Washington Center
08:49PM 36.2006 -76.1661 15° North 515 593 29,500 -1,020 Descending Washington Center
08:50PM 36.3342 -76.1181 16° North 509 586 28,900 -300 Descending Washington Center
08:51PM 36.4681 -76.0672 17° North 504 580 29,000  Climbing Washington Center
08:52PM 36.5892 -76.0214 17° North 494 568 29,000  Level Washington Center
08:53PM 36.7375 -75.9678 16° North 499 574 29,000  Level Washington Center
08:54PM 36.8711 -75.9164 17° North 499 574 29,000  Level Washington Center
08:55PM 36.9964 -75.8700 16° North 504 580 29,000  Level Washington Center
08:56PM 37.1342 -75.8186 17° North 511 588 29,000 -360 Level Washington Center
08:57PM 37.2719 -75.7694 16° North 511 588 28,300 -1,080 Descending Washington Center
08:58PM 37.4078 -75.7172 17° North 511 588 26,900 -1,500 Descending Washington Center
08:59PM 37.5433 -75.6653 17° North 511 588 25,300 -1,200 Descending Washington Center
09:00PM 37.6725 -75.6156 17° North 500 575 24,600 -1,080 Descending Washington Center
09:01PM 37.7997 -75.5681 16° North 489 563 23,200 -1,440 Descending Washington Center
09:02PM 37.9167 -75.5233 17° North 458 527 21,700 -1,140 Descending Washington Center
09:03PM 38.0250 -75.4811 17° North 426 490 21,000 -600 Descending Washington Center
09:04PM 38.1272 -75.4203 25° Northeast 407 468 20,500 -780 Descending Washington Center
09:05PM 38.2272 -75.3592 26° Northeast 397 457 19,500 -1,080 Descending Washington Center
09:06PM 38.3250 -75.2981 26° Northeast 392 451 18,400 -900 Descending Washington Center
09:07PM 38.4208 -75.2339 28° Northeast 387 445 17,800 -780 Descending Washington Center
09:08PM 38.5144 -75.1778 25° Northeast 382 440 16,900 -1,020 Descending Washington Center
09:09PM 38.6164 -75.1372 17° North 382 440 15,800 -1,020 Descending Washington Center
09:10PM 38.7225 -75.1181 North 382 440 14,900 -480 Descending Washington Center
09:11PM 38.8289 -75.1014 North 382 440 14,900  Level Washington Center
09:12PM 38.9372 -75.0819 North 382 440 14,900 -660 Level Washington Center
09:13PM 39.0414 -75.0625 North 388 447 13,600 -1,620 Descending Washington Center
09:14PM 39.1456 -75.0483 North 388 447 11,700 -1,500 Descending Washington Center
09:16PM 39.3028 -75.0150 North 290 334 9,800 -1,200 Descending FAA TRACON SMA TRACON (SMA)
09:16PM 39.3269 -75.0100 North 284 327 9,400 -1,200 Descending FAA TRACON SMA TRACON (SMA)
09:17PM 39.3558 -75.0033 10° North 283 326 9,000 -600 Descending FAA TRACON SMA TRACON (SMA)
09:17PM 39.3811 -74.9992 North 283 326 9,000  Level FAA TRACON SMA TRACON (SMA)
09:17PM 39.4053 -74.9942 North 284 327 9,000  Level FAA TRACON SMA TRACON (SMA)
09:17PM 39.4353 -74.9883 North 284 327 9,000 -600 Level FAA TRACON SMA TRACON (SMA)
09:18PM 39.4594 -74.9878 North 281 323 8,600 -1,500 Descending FAA TRACON SMA TRACON (SMA)
09:18PM 39.4797 -75.0019 332° Northwest 273 314 8,000 -1,500 Descending FAA TRACON SMA TRACON (SMA)
09:19PM 39.4992 -75.0294 313° West 265 305 7,600 -1,260 Descending FAA TRACON SMA TRACON (SMA)
09:19PM 39.5139 -75.0506 312° West 262 302 7,200 -960 Descending FAA TRACON SMA TRACON (SMA)
09:19PM 39.5292 -75.0722 312° West 259 298 7,000 -300 Descending FAA TRACON SMA TRACON (SMA)
09:19PM 39.5464 -75.0986 310° West 261 300 7,000  Level FAA TRACON SMA TRACON (SMA)
09:20PM 39.5628 -75.1222 312° West 264 304 7,000  Level FAA TRACON SMA TRACON (SMA)
09:20PM 39.5764 -75.1411 313° West 265 305 7,000 -180 Level FAA TRACON SMA TRACON (SMA)
09:20PM 39.5944 -75.1686 310° West 265 305 6,900 -780 Descending FAA TRACON SMA TRACON (SMA)
09:21PM 39.6117 -75.1936 312° West 264 304 6,500 -1,200 Descending FAA TRACON SMA TRACON (SMA)
09:21PM 39.6264 -75.2153 311° West 261 300 6,100 -780 Descending FAA TRACON SMA TRACON (SMA)
09:21PM 39.6403 -75.2408 305° West 279 321 6,000 -180 Descending FAA TRACON SMA TRACON (SMA)
09:22PM 39.6544 -75.2744 299° West 274 315 6,000 -300 Level FAA TRACON SMA TRACON (SMA)
09:22PM 39.6692 -75.2936 315° West 263 303 5,800 -1,680 Descending FAA TRACON SMA TRACON (SMA)
09:22PM 39.6875 -75.3164 316° Northwest 267 307 4,900 -3,000 Descending FAA TRACON SMA TRACON (SMA)
09:23PM 39.7075 -75.3442 313° West 277 319 3,800 -2,280 Descending FAA TRACON SMA TRACON (SMA)
09:23PM 39.7217 -75.3656 311° West 275 316 3,400 -1,200 Descending FAA TRACON SMA TRACON (SMA)
09:23PM 39.7386 -75.3883 314° West 245 282 3,000 -1,200 Descending FAA TRACON SMA TRACON (SMA)
09:24PM 39.7608 -75.4036 332° Northwest 230 265 2,600 -1,200 Descending FAA TRACON SMA TRACON (SMA)
09:24PM 39.7761 -75.4147 331° Northwest 224 258 2,200 -1,500 Descending FAA TRACON SMA TRACON (SMA)
09:25PM 39.7956 -75.4228 342° North 215 247 1,600 -1,080 Descending FAA TRACON SMA TRACON (SMA)
09:25PM 39.8156 -75.4217 North 184 212 1,500 -180 Descending FAA TRACON SMA TRACON (SMA)
09:25PM 39.8283 -75.4114 32° Northeast 171 197 1,500  Level FAA TRACON SMA TRACON (SMA)